sensor_id;sensor_type;location;lat;lon;timestamp;pressure;altitude;pressure_sealevel;temperature;humidity
77366;BME280;66430;50.182;11.704;2023-04-16T00:01:05;94343.04;;;10.68;43.14
77366;BME280;66430;50.182;11.704;2023-04-16T00:03:30;94345.19;;;10.51;43.21
77366;BME280;66430;50.182;11.704;2023-04-16T00:05:55;94345.03;;;10.54;43.05
77366;BME280;66430;50.182;11.704;2023-04-16T00:08:21;94345.93;;;10.56;42.95
77366;BME280;66430;50.182;11.704;2023-04-16T00:10:46;94346.08;;;10.57;42.90
77366;BME280;66430;50.182;11.704;2023-04-16T00:13:12;94345.00;;;10.39;42.76
77366;BME280;66430;50.182;11.704;2023-04-16T00:15:39;94346.95;;;10.30;43.01
77366;BME280;66430;50.182;11.704;2023-04-16T00:18:07;94350.32;;;10.24;43.08
77366;BME280;66430;50.182;11.704;2023-04-16T00:20:29;94349.81;;;10.23;43.08
77366;BME280;66430;50.182;11.704;2023-04-16T00:22:54;94346.10;;;10.11;43.26
77366;BME280;66430;50.182;11.704;2023-04-16T00:25:20;94348.08;;;10.08;43.29
77366;BME280;66430;50.182;11.704;2023-04-16T00:27:45;94351.22;;;10.10;43.29
77366;BME280;66430;50.182;11.704;2023-04-16T00:30:11;94355.15;;;10.17;43.49
77366;BME280;66430;50.182;11.704;2023-04-16T00:32:36;94356.22;;;9.92;43.50
77366;BME280;66430;50.182;11.704;2023-04-16T00:35:01;94354.34;;;10.09;43.63
77366;BME280;66430;50.182;11.704;2023-04-16T00:37:27;94354.02;;;10.11;43.69
77366;BME280;66430;50.182;11.704;2023-04-16T00:39:52;94353.74;;;9.70;43.89
77366;BME280;66430;50.182;11.704;2023-04-16T00:42:18;94355.17;;;9.73;44.27
77366;BME280;66430;50.182;11.704;2023-04-16T00:44:43;94354.25;;;9.77;44.23
77366;BME280;66430;50.182;11.704;2023-04-16T00:47:09;94357.23;;;9.73;44.55
77366;BME280;66430;50.182;11.704;2023-04-16T00:49:35;94357.07;;;10.00;44.43
77366;BME280;66430;50.182;11.704;2023-04-16T00:51:59;94358.01;;;9.89;44.18
77366;BME280;66430;50.182;11.704;2023-04-16T00:54:25;94356.11;;;9.93;43.91
77366;BME280;66430;50.182;11.704;2023-04-16T00:56:50;94357.49;;;9.71;43.89
77366;BME280;66430;50.182;11.704;2023-04-16T00:59:16;94356.09;;;10.03;43.58
77366;BME280;66430;50.182;11.704;2023-04-16T01:01:41;94352.98;;;9.77;43.78
77366;BME280;66430;50.182;11.704;2023-04-16T01:04:07;94353.95;;;9.99;43.82
77366;BME280;66430;50.182;11.704;2023-04-16T01:06:32;94353.70;;;10.01;43.96
77366;BME280;66430;50.182;11.704;2023-04-16T01:08:57;94353.13;;;10.02;44.00
77366;BME280;66430;50.182;11.704;2023-04-16T01:11:23;94352.18;;;10.09;43.89
77366;BME280;66430;50.182;11.704;2023-04-16T01:13:48;94350.42;;;10.17;43.74
77366;BME280;66430;50.182;11.704;2023-04-16T01:16:13;94353.79;;;10.19;43.70
77366;BME280;66430;50.182;11.704;2023-04-16T01:18:39;94354.01;;;9.97;43.45
77366;BME280;66430;50.182;11.704;2023-04-16T01:21:04;94352.52;;;9.88;43.67
77366;BME280;66430;50.182;11.704;2023-04-16T01:23:29;94354.22;;;10.18;43.45
77366;BME280;66430;50.182;11.704;2023-04-16T01:25:55;94354.66;;;9.93;43.65
77366;BME280;66430;50.182;11.704;2023-04-16T01:28:21;94353.61;;;10.14;43.60
77366;BME280;66430;50.182;11.704;2023-04-16T01:30:46;94355.04;;;10.05;43.82
77366;BME280;66430;50.182;11.704;2023-04-16T01:33:12;94356.17;;;10.06;43.70
77366;BME280;66430;50.182;11.704;2023-04-16T01:35:42;94357.88;;;9.99;43.80
77366;BME280;66430;50.182;11.704;2023-04-16T01:38:02;94362.57;;;10.03;43.91
77366;BME280;66430;50.182;11.704;2023-04-16T01:40:28;94364.22;;;9.88;43.67
77366;BME280;66430;50.182;11.704;2023-04-16T01:42:53;94366.59;;;9.92;43.59
77366;BME280;66430;50.182;11.704;2023-04-16T01:45:19;94366.70;;;10.20;43.57
77366;BME280;66430;50.182;11.704;2023-04-16T01:47:44;94367.46;;;9.76;43.48
77366;BME280;66430;50.182;11.704;2023-04-16T01:50:11;94370.52;;;10.16;43.33
77366;BME280;66430;50.182;11.704;2023-04-16T01:52:35;94369.53;;;10.28;43.28
77366;BME280;66430;50.182;11.704;2023-04-16T01:55:00;94370.15;;;10.03;43.17
77366;BME280;66430;50.182;11.704;2023-04-16T01:57:26;94373.15;;;9.75;43.35
77366;BME280;66430;50.182;11.704;2023-04-16T01:59:51;94372.42;;;10.26;43.35
77366;BME280;66430;50.182;11.704;2023-04-16T02:02:17;94371.80;;;10.07;43.21
77366;BME280;66430;50.182;11.704;2023-04-16T02:04:44;94370.25;;;10.12;43.08
77366;BME280;66430;50.182;11.704;2023-04-16T02:07:08;94369.23;;;10.37;43.16
77366;BME280;66430;50.182;11.704;2023-04-16T02:09:33;94371.70;;;9.94;43.10
77366;BME280;66430;50.182;11.704;2023-04-16T02:11:58;94370.97;;;10.15;43.04
77366;BME280;66430;50.182;11.704;2023-04-16T02:14:24;94370.70;;;10.16;43.15
77366;BME280;66430;50.182;11.704;2023-04-16T02:16:50;94372.27;;;10.44;43.12
77366;BME280;66430;50.182;11.704;2023-04-16T02:19:15;94375.25;;;10.17;43.05
77366;BME280;66430;50.182;11.704;2023-04-16T02:21:40;94374.90;;;10.44;43.03
77366;BME280;66430;50.182;11.704;2023-04-16T02:24:06;94376.40;;;10.25;42.86
77366;BME280;66430;50.182;11.704;2023-04-16T02:26:31;94378.55;;;10.51;42.86
77366;BME280;66430;50.182;11.704;2023-04-16T02:28:57;94377.09;;;10.53;42.81
77366;BME280;66430;50.182;11.704;2023-04-16T02:31:22;94379.19;;;10.27;42.78
77366;BME280;66430;50.182;11.704;2023-04-16T02:33:48;94379.29;;;10.09;42.84
77366;BME280;66430;50.182;11.704;2023-04-16T02:36:13;94380.83;;;10.37;42.68
77366;BME280;66430;50.182;11.704;2023-04-16T02:38:39;94380.92;;;10.43;42.52
77366;BME280;66430;50.182;11.704;2023-04-16T02:41:04;94379.91;;;10.42;42.62
77366;BME280;66430;50.182;11.704;2023-04-16T02:43:29;94378.95;;;10.24;42.42
77366;BME280;66430;50.182;11.704;2023-04-16T02:45:55;94377.98;;;10.49;42.31
77366;BME280;66430;50.182;11.704;2023-04-16T02:48:20;94378.92;;;10.51;42.37
77366;BME280;66430;50.182;11.704;2023-04-16T02:50:45;94380.77;;;10.50;42.27
77366;BME280;66430;50.182;11.704;2023-04-16T02:53:11;94383.15;;;10.75;42.23
77366;BME280;66430;50.182;11.704;2023-04-16T02:55:36;94384.42;;;10.76;42.16
77366;BME280;66430;50.182;11.704;2023-04-16T02:58:02;94385.63;;;10.28;42.12
77366;BME280;66430;50.182;11.704;2023-04-16T03:00:27;94385.48;;;10.49;42.15
77366;BME280;66430;50.182;11.704;2023-04-16T03:02:52;94386.14;;;10.48;42.06
77366;BME280;66430;50.182;11.704;2023-04-16T03:05:18;94384.88;;;10.46;42.08
77366;BME280;66430;50.182;11.704;2023-04-16T03:07:43;94386.27;;;10.47;41.99
77366;BME280;66430;50.182;11.704;2023-04-16T03:10:09;94387.08;;;10.50;41.98
77366;BME280;66430;50.182;11.704;2023-04-16T03:12:34;94390.12;;;10.46;42.05
77366;BME280;66430;50.182;11.704;2023-04-16T03:15:00;94393.08;;;10.47;42.13
77366;BME280;66430;50.182;11.704;2023-04-16T03:17:25;94392.76;;;10.46;42.14
77366;BME280;66430;50.182;11.704;2023-04-16T03:19:51;94393.05;;;10.22;42.07
77366;BME280;66430;50.182;11.704;2023-04-16T03:22:16;94397.71;;;10.50;42.09
77366;BME280;66430;50.182;11.704;2023-04-16T03:24:41;94397.02;;;10.45;41.92
77366;BME280;66430;50.182;11.704;2023-04-16T03:27:07;94399.53;;;10.43;41.93
77366;BME280;66430;50.182;11.704;2023-04-16T03:29:35;94398.82;;;10.14;41.98
77366;BME280;66430;50.182;11.704;2023-04-16T03:31:58;94403.33;;;10.62;42.05
77366;BME280;66430;50.182;11.704;2023-04-16T03:34:23;94408.29;;;10.16;42.07
77366;BME280;66430;50.182;11.704;2023-04-16T03:36:49;94413.58;;;10.42;42.05
77366;BME280;66430;50.182;11.704;2023-04-16T03:39:14;94416.65;;;10.45;42.00
77366;BME280;66430;50.182;11.704;2023-04-16T03:41:39;94417.89;;;10.44;41.93
77366;BME280;66430;50.182;11.704;2023-04-16T03:44:05;94418.76;;;10.44;41.92
77366;BME280;66430;50.182;11.704;2023-04-16T03:46:30;94421.87;;;10.44;41.93
77366;BME280;66430;50.182;11.704;2023-04-16T03:48:56;94424.27;;;10.45;41.94
77366;BME280;66430;50.182;11.704;2023-04-16T03:51:21;94426.30;;;10.23;41.89
77366;BME280;66430;50.182;11.704;2023-04-16T03:53:47;94427.06;;;10.46;41.80
77366;BME280;66430;50.182;11.704;2023-04-16T03:56:12;94428.88;;;10.49;41.82
77366;BME280;66430;50.182;11.704;2023-04-16T03:58:39;94429.88;;;10.46;41.81
77366;BME280;66430;50.182;11.704;2023-04-16T04:01:03;94431.84;;;10.44;41.78
77366;BME280;66430;50.182;11.704;2023-04-16T04:03:29;94433.43;;;10.40;41.91
77366;BME280;66430;50.182;11.704;2023-04-16T04:05:54;94435.02;;;10.36;41.89
77366;BME280;66430;50.182;11.704;2023-04-16T04:08:20;94437.16;;;10.51;41.88
77366;BME280;66430;50.182;11.704;2023-04-16T04:10:45;94437.18;;;10.28;41.96
77366;BME280;66430;50.182;11.704;2023-04-16T04:13:10;94438.71;;;10.33;42.03
77366;BME280;66430;50.182;11.704;2023-04-16T04:15:36;94438.25;;;10.55;42.03
77366;BME280;66430;50.182;11.704;2023-04-16T04:18:01;94437.16;;;10.04;41.99
77366;BME280;66430;50.182;11.704;2023-04-16T04:20:27;94440.70;;;10.49;42.03
77366;BME280;66430;50.182;11.704;2023-04-16T04:22:52;94443.04;;;9.99;42.17
77366;BME280;66430;50.182;11.704;2023-04-16T04:25:18;94443.89;;;10.46;41.96
77366;BME280;66430;50.182;11.704;2023-04-16T04:27:43;94446.97;;;10.19;42.14
77366;BME280;66430;50.182;11.704;2023-04-16T04:30:10;94445.28;;;10.14;42.12
77366;BME280;66430;50.182;11.704;2023-04-16T04:32:34;94447.04;;;10.11;42.18
77366;BME280;66430;50.182;11.704;2023-04-16T04:35:01;94448.53;;;10.07;41.95
77366;BME280;66430;50.182;11.704;2023-04-16T04:37:25;94447.83;;;10.05;41.86
77366;BME280;66430;50.182;11.704;2023-04-16T04:39:50;94445.71;;;10.17;42.32
77366;BME280;66430;50.182;11.704;2023-04-16T04:42:16;94446.12;;;9.91;42.36
77366;BME280;66430;50.182;11.704;2023-04-16T04:44:41;94450.50;;;9.92;42.42
77366;BME280;66430;50.182;11.704;2023-04-16T04:47:07;94450.74;;;10.00;42.38
77366;BME280;66430;50.182;11.704;2023-04-16T04:49:32;94454.11;;;10.08;42.28
77366;BME280;66430;50.182;11.704;2023-04-16T04:51:58;94455.73;;;10.14;42.14
77366;BME280;66430;50.182;11.704;2023-04-16T04:54:23;94460.93;;;10.47;42.03
77366;BME280;66430;50.182;11.704;2023-04-16T04:56:49;94463.27;;;10.25;42.00
77366;BME280;66430;50.182;11.704;2023-04-16T04:59:16;94463.26;;;10.33;41.93
77366;BME280;66430;50.182;11.704;2023-04-16T05:01:40;94465.69;;;10.11;41.86
77366;BME280;66430;50.182;11.704;2023-04-16T05:04:05;94466.08;;;10.40;41.86
77366;BME280;66430;50.182;11.704;2023-04-16T05:06:30;94464.90;;;10.43;41.84
77366;BME280;66430;50.182;11.704;2023-04-16T05:08:56;94465.65;;;10.42;41.84
77366;BME280;66430;50.182;11.704;2023-04-16T05:11:21;94467.04;;;10.27;42.06
77366;BME280;66430;50.182;11.704;2023-04-16T05:13:47;94471.41;;;10.14;42.50
77366;BME280;66430;50.182;11.704;2023-04-16T05:16:16;94475.33;;;10.08;42.69
77366;BME280;66430;50.182;11.704;2023-04-16T05:18:39;94478.81;;;10.35;42.66
77366;BME280;66430;50.182;11.704;2023-04-16T05:21:04;94480.95;;;10.17;42.16
77366;BME280;66430;50.182;11.704;2023-04-16T05:23:29;94484.92;;;10.34;42.43
77366;BME280;66430;50.182;11.704;2023-04-16T05:25:54;94487.54;;;10.34;42.68
77366;BME280;66430;50.182;11.704;2023-04-16T05:28:20;94487.52;;;10.27;42.93
77366;BME280;66430;50.182;11.704;2023-04-16T05:30:45;94490.84;;;10.32;42.91
77366;BME280;66430;50.182;11.704;2023-04-16T05:33:11;94495.00;;;10.13;43.05
77366;BME280;66430;50.182;11.704;2023-04-16T05:35:36;94498.85;;;10.21;42.97
77366;BME280;66430;50.182;11.704;2023-04-16T05:38:01;94502.88;;;10.35;42.79
77366;BME280;66430;50.182;11.704;2023-04-16T05:40:27;94503.61;;;10.39;42.80
77366;BME280;66430;50.182;11.704;2023-04-16T05:42:52;94506.29;;;10.08;42.28
77366;BME280;66430;50.182;11.704;2023-04-16T05:45:18;94508.16;;;10.59;42.23
77366;BME280;66430;50.182;11.704;2023-04-16T05:47:43;94510.12;;;10.43;42.23
77366;BME280;66430;50.182;11.704;2023-04-16T05:50:09;94512.47;;;10.76;42.21
77366;BME280;66430;50.182;11.704;2023-04-16T05:52:34;94512.31;;;10.61;42.06
77366;BME280;66430;50.182;11.704;2023-04-16T05:54:59;94509.76;;;10.69;42.23
77366;BME280;66430;50.182;11.704;2023-04-16T05:57:25;94510.54;;;11.03;42.03
77366;BME280;66430;50.182;11.704;2023-04-16T05:59:50;94512.26;;;11.16;41.76
77366;BME280;66430;50.182;11.704;2023-04-16T06:02:16;94517.85;;;11.23;41.68
77366;BME280;66430;50.182;11.704;2023-04-16T06:04:41;94521.39;;;11.04;41.61
77366;BME280;66430;50.182;11.704;2023-04-16T06:07:07;94520.33;;;11.01;41.49
77366;BME280;66430;50.182;11.704;2023-04-16T06:09:35;94522.50;;;11.30;41.17
77366;BME280;66430;50.182;11.704;2023-04-16T06:11:57;94526.03;;;11.04;41.34
77366;BME280;66430;50.182;11.704;2023-04-16T06:14:23;94529.99;;;11.18;41.71
77366;BME280;66430;50.182;11.704;2023-04-16T06:16:48;94532.05;;;11.01;41.72
77366;BME280;66430;50.182;11.704;2023-04-16T06:19:13;94534.79;;;11.04;41.49
77366;BME280;66430;50.182;11.704;2023-04-16T06:21:39;94536.58;;;11.26;41.54
77366;BME280;66430;50.182;11.704;2023-04-16T06:24:05;94538.75;;;10.99;41.78
77366;BME280;66430;50.182;11.704;2023-04-16T06:26:29;94543.35;;;11.05;41.68
77366;BME280;66430;50.182;11.704;2023-04-16T06:28:55;94545.69;;;10.93;41.68
77366;BME280;66430;50.182;11.704;2023-04-16T06:31:20;94547.95;;;11.08;41.81
77366;BME280;66430;50.182;11.704;2023-04-16T06:33:46;94548.77;;;10.83;42.12
77366;BME280;66430;50.182;11.704;2023-04-16T06:36:11;94547.83;;;10.96;42.31
77366;BME280;66430;50.182;11.704;2023-04-16T06:38:37;94548.77;;;11.30;42.07
77366;BME280;66430;50.182;11.704;2023-04-16T06:41:02;94553.06;;;10.90;41.98
77366;BME280;66430;50.182;11.704;2023-04-16T06:43:27;94555.41;;;11.15;42.02
77366;BME280;66430;50.182;11.704;2023-04-16T06:45:53;94556.99;;;11.22;41.74
77366;BME280;66430;50.182;11.704;2023-04-16T06:48:18;94558.91;;;10.74;41.89
77366;BME280;66430;50.182;11.704;2023-04-16T06:50:44;94562.99;;;11.50;41.44
77366;BME280;66430;50.182;11.704;2023-04-16T06:53:09;94561.72;;;11.19;41.43
77366;BME280;66430;50.182;11.704;2023-04-16T06:55:35;94566.08;;;11.13;41.58
77366;BME280;66430;50.182;11.704;2023-04-16T06:58:00;94567.43;;;10.88;41.67
77366;BME280;66430;50.182;11.704;2023-04-16T07:00:26;94570.97;;;11.35;41.96
77366;BME280;66430;50.182;11.704;2023-04-16T07:02:51;94569.88;;;10.84;40.92
77366;BME280;66430;50.182;11.704;2023-04-16T07:05:17;94570.97;;;10.81;41.17
77366;BME280;66430;50.182;11.704;2023-04-16T07:07:42;94574.74;;;10.90;41.23
77366;BME280;66430;50.182;11.704;2023-04-16T07:10:08;94572.06;;;11.18;40.81
77366;BME280;66430;50.182;11.704;2023-04-16T07:12:33;94575.02;;;11.09;40.93
77366;BME280;66430;50.182;11.704;2023-04-16T07:14:59;94575.10;;;11.50;41.20
77366;BME280;66430;50.182;11.704;2023-04-16T07:17:24;94574.88;;;11.63;40.79
77366;BME280;66430;50.182;11.704;2023-04-16T07:19:50;94576.48;;;11.32;40.88
77366;BME280;66430;50.182;11.704;2023-04-16T07:22:15;94577.58;;;11.43;40.92
77366;BME280;66430;50.182;11.704;2023-04-16T07:24:40;94579.03;;;11.36;40.85
77366;BME280;66430;50.182;11.704;2023-04-16T07:27:05;94584.02;;;12.03;40.79
77366;BME280;66430;50.182;11.704;2023-04-16T07:29:31;94586.37;;;11.58;40.81
77366;BME280;66430;50.182;11.704;2023-04-16T07:31:56;94586.41;;;11.36;40.55
77366;BME280;66430;50.182;11.704;2023-04-16T07:34:22;94589.76;;;11.48;40.83
77366;BME280;66430;50.182;11.704;2023-04-16T07:36:47;94590.02;;;11.66;40.42
77366;BME280;66430;50.182;11.704;2023-04-16T07:39:12;94592.93;;;11.71;40.87
77366;BME280;66430;50.182;11.704;2023-04-16T07:41:40;94594.08;;;11.75;40.76
77366;BME280;66430;50.182;11.704;2023-04-16T07:44:04;94597.09;;;11.80;40.39
77366;BME280;66430;50.182;11.704;2023-04-16T07:46:29;94599.94;;;11.71;40.54
77366;BME280;66430;50.182;11.704;2023-04-16T07:48:54;94602.33;;;11.42;40.58
77366;BME280;66430;50.182;11.704;2023-04-16T07:51:20;94602.74;;;11.64;40.32
77366;BME280;66430;50.182;11.704;2023-04-16T07:53:45;94600.62;;;11.77;40.49
77366;BME280;66430;50.182;11.704;2023-04-16T07:56:11;94603.18;;;11.60;41.25
77366;BME280;66430;50.182;11.704;2023-04-16T07:58:36;94604.93;;;11.52;40.54
77366;BME280;66430;50.182;11.704;2023-04-16T08:01:02;94606.52;;;11.57;39.70
77366;BME280;66430;50.182;11.704;2023-04-16T08:03:27;94609.83;;;11.58;40.78
77366;BME280;66430;50.182;11.704;2023-04-16T08:05:52;94610.55;;;11.69;40.28
77366;BME280;66430;50.182;11.704;2023-04-16T08:08:17;94612.12;;;11.77;39.85
77366;BME280;66430;50.182;11.704;2023-04-16T08:10:43;94615.72;;;11.76;40.28
77366;BME280;66430;50.182;11.704;2023-04-16T08:13:08;94619.53;;;11.90;40.19
77366;BME280;66430;50.182;11.704;2023-04-16T08:15:34;94622.72;;;11.77;39.86
77366;BME280;66430;50.182;11.704;2023-04-16T08:17:59;94624.74;;;12.19;39.75
77366;BME280;66430;50.182;11.704;2023-04-16T08:20:25;94629.22;;;11.40;40.09
77366;BME280;66430;50.182;11.704;2023-04-16T08:22:50;94632.94;;;11.51;40.02
77366;BME280;66430;50.182;11.704;2023-04-16T08:25:16;94637.62;;;11.78;40.78
77366;BME280;66430;50.182;11.704;2023-04-16T08:27:41;94640.65;;;11.65;39.88
77366;BME280;66430;50.182;11.704;2023-04-16T08:30:07;94642.37;;;11.80;39.56
77366;BME280;66430;50.182;11.704;2023-04-16T08:32:32;94643.76;;;11.87;39.87
77366;BME280;66430;50.182;11.704;2023-04-16T08:34:57;94646.89;;;11.75;39.51
77366;BME280;66430;50.182;11.704;2023-04-16T08:37:23;94646.62;;;11.71;40.54
77366;BME280;66430;50.182;11.704;2023-04-16T08:39:48;94648.02;;;11.87;40.45
77366;BME280;66430;50.182;11.704;2023-04-16T08:42:22;94650.47;;;11.94;39.50
77366;BME280;66430;50.182;11.704;2023-04-16T08:44:44;94651.81;;;12.43;39.45
77366;BME280;66430;50.182;11.704;2023-04-16T08:47:06;94656.48;;;12.25;39.30
77366;BME280;66430;50.182;11.704;2023-04-16T08:49:32;94660.07;;;12.55;39.64
77366;BME280;66430;50.182;11.704;2023-04-16T08:51:56;94662.97;;;12.04;39.75
77366;BME280;66430;50.182;11.704;2023-04-16T08:54:30;94664.95;;;12.05;38.69
77366;BME280;66430;50.182;11.704;2023-04-16T08:56:47;94665.24;;;12.05;39.02
77366;BME280;66430;50.182;11.704;2023-04-16T08:59:12;94666.72;;;12.11;39.59
77366;BME280;66430;50.182;11.704;2023-04-16T09:01:38;94667.62;;;12.45;39.55
77366;BME280;66430;50.182;11.704;2023-04-16T09:04:04;94668.37;;;12.58;39.37
77366;BME280;66430;50.182;11.704;2023-04-16T09:06:28;94666.53;;;12.80;39.27
77366;BME280;66430;50.182;11.704;2023-04-16T09:08:53;94670.92;;;12.80;38.57
77366;BME280;66430;50.182;11.704;2023-04-16T09:11:20;94674.11;;;12.67;38.37
77366;BME280;66430;50.182;11.704;2023-04-16T09:13:45;94675.95;;;13.02;38.71
77366;BME280;66430;50.182;11.704;2023-04-16T09:16:10;94673.58;;;12.85;38.54
77366;BME280;66430;50.182;11.704;2023-04-16T09:18:35;94673.76;;;12.55;38.40
77366;BME280;66430;50.182;11.704;2023-04-16T09:21:03;94669.56;;;12.78;37.22
77366;BME280;66430;50.182;11.704;2023-04-16T09:23:26;94673.42;;;12.59;37.26
77366;BME280;66430;50.182;11.704;2023-04-16T09:25:51;94674.50;;;12.97;36.74
77366;BME280;66430;50.182;11.704;2023-04-16T09:30:42;94681.82;;;12.96;37.75
77366;BME280;66430;50.182;11.704;2023-04-16T09:33:15;94682.79;;;12.95;37.74
77366;BME280;66430;50.182;11.704;2023-04-16T09:35:44;94689.43;;;12.45;38.31
77366;BME280;66430;50.182;11.704;2023-04-16T09:37:59;94686.25;;;12.88;38.17
77366;BME280;66430;50.182;11.704;2023-04-16T09:40:24;94687.44;;;12.93;37.85
77366;BME280;66430;50.182;11.704;2023-04-16T09:42:50;94689.20;;;13.05;37.30
77366;BME280;66430;50.182;11.704;2023-04-16T09:45:14;94690.38;;;13.07;36.54
77366;BME280;66430;50.182;11.704;2023-04-16T09:47:41;94690.15;;;13.02;36.74
77366;BME280;66430;50.182;11.704;2023-04-16T09:50:06;94695.78;;;12.96;36.64
77366;BME280;66430;50.182;11.704;2023-04-16T09:52:31;94695.51;;;13.12;37.07
77366;BME280;66430;50.182;11.704;2023-04-16T09:54:56;94697.73;;;13.08;38.05
77366;BME280;66430;50.182;11.704;2023-04-16T09:57:23;94703.78;;;13.01;37.62
77366;BME280;66430;50.182;11.704;2023-04-16T09:59:53;94704.96;;;13.37;38.21
77366;BME280;66430;50.182;11.704;2023-04-16T10:02:13;94704.26;;;13.31;37.02
77366;BME280;66430;50.182;11.704;2023-04-16T10:04:47;94705.36;;;13.02;36.76
77366;BME280;66430;50.182;11.704;2023-04-16T10:07:04;94704.89;;;13.55;37.17
77366;BME280;66430;50.182;11.704;2023-04-16T10:09:31;94706.57;;;12.46;37.97
77366;BME280;66430;50.182;11.704;2023-04-16T10:11:54;94709.50;;;12.95;37.59
77366;BME280;66430;50.182;11.704;2023-04-16T10:14:19;94710.69;;;13.30;37.78
77366;BME280;66430;50.182;11.704;2023-04-16T10:16:45;94714.22;;;13.08;38.30
77366;BME280;66430;50.182;11.704;2023-04-16T10:19:10;94716.09;;;13.11;38.21
77366;BME280;66430;50.182;11.704;2023-04-16T10:21:36;94718.33;;;12.84;37.13
77366;BME280;66430;50.182;11.704;2023-04-16T10:24:02;94716.24;;;12.79;38.05
77366;BME280;66430;50.182;11.704;2023-04-16T10:26:27;94721.17;;;12.81;37.12
77366;BME280;66430;50.182;11.704;2023-04-16T10:28:52;94722.10;;;12.82;36.98
77366;BME280;66430;50.182;11.704;2023-04-16T10:31:17;94723.44;;;12.41;38.25
77366;BME280;66430;50.182;11.704;2023-04-16T10:33:43;94724.86;;;12.22;38.32
77366;BME280;66430;50.182;11.704;2023-04-16T10:36:10;94724.60;;;12.66;38.75
77366;BME280;66430;50.182;11.704;2023-04-16T10:38:33;94728.74;;;12.91;37.99
77366;BME280;66430;50.182;11.704;2023-04-16T10:41:00;94731.47;;;12.62;38.21
77366;BME280;66430;50.182;11.704;2023-04-16T10:43:24;94733.61;;;12.81;38.23
77366;BME280;66430;50.182;11.704;2023-04-16T10:45:49;94734.86;;;12.80;37.45
77366;BME280;66430;50.182;11.704;2023-04-16T10:48:18;94734.79;;;13.02;37.44
77366;BME280;66430;50.182;11.704;2023-04-16T10:50:39;94739.75;;;12.76;38.52
77366;BME280;66430;50.182;11.704;2023-04-16T10:55:30;94739.05;;;12.83;37.52
77366;BME280;66430;50.182;11.704;2023-04-16T10:57:55;94743.42;;;12.73;38.54
77366;BME280;66430;50.182;11.704;2023-04-16T11:00:21;94741.31;;;12.87;38.05
77366;BME280;66430;50.182;11.704;2023-04-16T11:02:46;94744.07;;;12.94;38.05
77366;BME280;66430;50.182;11.704;2023-04-16T11:05:12;94744.81;;;12.84;37.87
77366;BME280;66430;50.182;11.704;2023-04-16T11:07:45;94746.32;;;12.93;37.69
77366;BME280;66430;50.182;11.704;2023-04-16T11:10:05;94745.69;;;12.73;38.35
77366;BME280;66430;50.182;11.704;2023-04-16T11:12:33;94745.62;;;12.47;37.94
77366;BME280;66430;50.182;11.704;2023-04-16T11:14:57;94745.39;;;13.23;37.51
77366;BME280;66430;50.182;11.704;2023-04-16T11:17:19;94744.83;;;13.04;37.71
77366;BME280;66430;50.182;11.704;2023-04-16T11:19:44;94745.54;;;13.29;37.93
77366;BME280;66430;50.182;11.704;2023-04-16T11:22:13;94747.82;;;12.57;38.28
77366;BME280;66430;50.182;11.704;2023-04-16T11:24:35;94751.86;;;12.94;37.99
77366;BME280;66430;50.182;11.704;2023-04-16T11:27:01;94752.08;;;12.69;37.98
77366;BME280;66430;50.182;11.704;2023-04-16T11:29:26;94752.60;;;12.94;37.92
77366;BME280;66430;50.182;11.704;2023-04-16T11:31:52;94753.48;;;13.04;37.98
77366;BME280;66430;50.182;11.704;2023-04-16T11:34:18;94757.22;;;12.91;37.33
77366;BME280;66430;50.182;11.704;2023-04-16T11:36:43;94757.58;;;13.50;37.39
77366;BME280;66430;50.182;11.704;2023-04-16T11:39:09;94759.10;;;13.50;38.19
77366;BME280;66430;50.182;11.704;2023-04-16T11:41:33;94757.05;;;12.87;36.83
77366;BME280;66430;50.182;11.704;2023-04-16T11:43:58;94758.05;;;13.13;36.90
77366;BME280;66430;50.182;11.704;2023-04-16T11:46:38;94761.58;;;13.13;36.88
77366;BME280;66430;50.182;11.704;2023-04-16T11:48:50;94757.36;;;13.40;37.20
77366;BME280;66430;50.182;11.704;2023-04-16T11:51:15;94762.27;;;13.68;37.51
77366;BME280;66430;50.182;11.704;2023-04-16T11:53:46;94763.11;;;13.40;37.73
77366;BME280;66430;50.182;11.704;2023-04-16T11:56:05;94764.68;;;13.47;38.26
77366;BME280;66430;50.182;11.704;2023-04-16T11:58:31;94764.33;;;13.35;37.45
77366;BME280;66430;50.182;11.704;2023-04-16T12:00:56;94762.14;;;12.91;37.58
77366;BME280;66430;50.182;11.704;2023-04-16T12:05:47;94764.66;;;13.30;38.32
77366;BME280;66430;50.182;11.704;2023-04-16T12:08:12;94767.93;;;13.26;38.31
77366;BME280;66430;50.182;11.704;2023-04-16T12:13:10;94768.09;;;12.83;37.94
77366;BME280;66430;50.182;11.704;2023-04-16T12:20:19;94774.36;;;12.71;38.03
77366;BME280;66430;50.182;11.704;2023-04-16T12:22:45;94774.82;;;12.34;38.34
77366;BME280;66430;50.182;11.704;2023-04-16T12:25:11;94777.71;;;12.54;39.32
77366;BME280;66430;50.182;11.704;2023-04-16T12:27:44;94780.48;;;12.41;38.60
77366;BME280;66430;50.182;11.704;2023-04-16T12:30:03;94783.82;;;12.62;38.69
77366;BME280;66430;50.182;11.704;2023-04-16T12:32:25;94786.61;;;12.37;39.22
77366;BME280;66430;50.182;11.704;2023-04-16T12:34:51;94787.67;;;12.68;38.66
77366;BME280;66430;50.182;11.704;2023-04-16T12:37:16;94787.72;;;12.59;38.84
77366;BME280;66430;50.182;11.704;2023-04-16T12:39:41;94789.57;;;13.23;39.59
77366;BME280;66430;50.182;11.704;2023-04-16T12:42:07;94790.61;;;12.84;40.54
77366;BME280;66430;50.182;11.704;2023-04-16T12:44:32;94790.65;;;13.11;40.05
77366;BME280;66430;50.182;11.704;2023-04-16T12:46:58;94788.85;;;12.93;40.45
77366;BME280;66430;50.182;11.704;2023-04-16T12:49:23;94787.78;;;12.93;41.21
77366;BME280;66430;50.182;11.704;2023-04-16T12:51:48;94789.77;;;12.73;41.13
77366;BME280;66430;50.182;11.704;2023-04-16T12:54:14;94790.41;;;13.11;41.00